Time;durP1;ratioP1;P1;durP2;ratioP2;P2;SDS_P1;SDS_P2;PMS_P1;PMS_P2;Temp;Humidity;BMP_temperature;BMP_pressure;BME280_temperature;BME280_humidity;BME280_pressure;Samples;Min_cycle;Max_cycle;Signal;HPM_P1;HPM_P2
2021/09/23 00:01:56;;;;;;;20.77;8.35;;;;;;;11.69;82.37;101124.14;1693435;84;21046;-78
2021/09/23 00:04:40;;;;;;;21.37;7.90;;;;;;;11.65;82.35;101117.44;1676146;84;21163;-78
2021/09/23 00:06:52;;;;;;;22.52;7.25;;;;;;;11.58;82.35;101112.38;1658370;86;21054;-78
2021/09/23 00:09:18;;;;;;;21.02;7.80;;;;;;;11.51;82.34;101106.34;1665950;86;21086;-78
2021/09/23 00:11:44;;;;;;;18.02;7.72;;;;;;;11.48;82.37;101106.67;1665644;86;21472;-78
2021/09/23 00:14:12;;;;;;;20.37;6.80;;;;;;;11.42;82.36;101095.30;1665921;86;21018;-78
2021/09/23 00:16:38;;;;;;;20.45;6.97;;;;;;;11.36;82.39;101094.60;1665805;86;21285;-78
2021/09/23 00:19:04;;;;;;;26.17;8.23;;;;;;;11.31;82.38;101091.55;1665614;86;21026;-78
2021/09/23 00:21:30;;;;;;;21.37;7.45;;;;;;;11.27;82.38;101086.18;1668924;84;21067;-78
2021/09/23 00:23:57;;;;;;;15.03;6.72;;;;;;;11.21;82.38;101088.16;1671019;85;21031;-78
2021/09/23 00:26:23;;;;;;;24.05;7.20;;;;;;;11.16;82.41;101078.43;1670993;85;21105;-78
2021/09/23 00:28:49;;;;;;;23.32;6.92;;;;;;;11.12;82.40;101070.39;1670993;85;21143;-78
2021/09/23 00:31:15;;;;;;;24.98;7.20;;;;;;;11.07;82.41;101067.37;1670768;85;21077;-78
2021/09/23 00:33:41;;;;;;;21.27;6.97;;;;;;;11.02;82.43;101069.17;1670678;85;21066;-78
2021/09/23 00:36:07;;;;;;;36.05;8.23;;;;;;;10.98;82.44;101073.13;1670832;85;21074;-78
2021/09/23 00:38:33;;;;;;;18.90;7.67;;;;;;;10.94;82.44;101066.95;1670798;85;21577;-78
2021/09/23 00:40:59;;;;;;;20.55;7.92;;;;;;;10.89;82.46;101064.74;1670909;85;22146;-78
2021/09/23 00:43:25;;;;;;;22.20;8.03;;;;;;;10.85;82.47;101071.88;1670892;85;21050;-77
2021/09/23 00:45:51;;;;;;;20.35;7.08;;;;;;;10.78;82.49;101058.81;1670851;85;21006;-78
2021/09/23 00:48:17;;;;;;;21.52;6.95;;;;;;;10.73;82.51;101069.94;1670978;85;21019;-78
2021/09/23 00:50:44;;;;;;;25.52;7.40;;;;;;;10.70;82.57;101072.08;1670864;85;21006;-78
2021/09/23 00:53:10;;;;;;;22.25;6.90;;;;;;;10.66;82.57;101072.06;1670876;85;21205;-77
2021/09/23 00:55:36;;;;;;;28.07;8.23;;;;;;;10.63;82.61;101073.68;1670770;85;21648;-77
2021/09/23 00:58:03;;;;;;;27.13;10.48;;;;;;;10.61;82.63;101085.85;1670912;85;21017;-78
2021/09/23 01:00:29;;;;;;;25.62;9.78;;;;;;;10.61;82.66;101089.86;1688448;85;21019;-78
2021/09/23 01:02:55;;;;;;;27.13;9.55;;;;;;;10.63;82.71;101085.19;1672234;84;21074;-78
2021/09/23 01:05:21;;;;;;;29.23;9.50;;;;;;;10.67;82.71;101080.39;1699702;84;21131;-78
2021/09/23 01:07:48;;;;;;;23.50;7.90;;;;;;;10.69;82.73;101073.93;1699634;84;21006;-78
2021/09/23 01:10:15;;;;;;;22.90;7.67;;;;;;;10.73;82.76;101072.60;1699562;84;21495;-78
2021/09/23 01:12:42;;;;;;;21.48;8.05;;;;;;;10.78;82.76;101069.48;1699934;83;21022;-78
2021/09/23 01:15:09;;;;;;;26.80;8.05;;;;;;;10.84;82.77;101073.70;1699715;84;21018;-78
2021/09/23 01:17:35;;;;;;;26.23;8.05;;;;;;;10.91;82.79;101073.91;1699594;84;21160;-78
2021/09/23 01:20:01;;;;;;;29.27;8.10;;;;;;;10.98;82.81;101078.97;1699325;84;20983;-77
2021/09/23 01:22:27;;;;;;;20.88;7.85;;;;;;;11.03;82.82;101072.68;1707388;84;21572;-78
2021/09/23 01:24:54;;;;;;;21.80;7.47;;;;;;;11.09;82.84;101068.53;1708043;84;21496;-78
2021/09/23 01:27:20;;;;;;;22.07;6.40;;;;;;;11.12;82.85;101072.25;1708335;84;21547;-77
2021/09/23 01:29:45;;;;;;;21.40;6.15;;;;;;;11.16;82.86;101071.75;1708221;84;21609;-78
2021/09/23 01:32:11;;;;;;;28.38;6.30;;;;;;;11.20;82.90;101068.27;1708363;84;20956;-78
2021/09/23 01:34:39;;;;;;;20.40;7.20;;;;;;;11.21;82.93;101066.80;1707838;84;21016;-78
2021/09/23 01:37:07;;;;;;;21.27;8.95;;;;;;;11.22;82.94;101063.14;1708184;83;21134;-78
2021/09/23 01:39:33;;;;;;;24.43;7.90;;;;;;;11.23;82.96;101066.12;1724597;83;21035;-77
2021/09/23 01:41:59;;;;;;;22.82;6.35;;;;;;;11.23;82.98;101064.80;1712211;83;21127;-77
2021/09/23 01:44:26;;;;;;;21.45;7.47;;;;;;;11.21;82.99;101052.11;1712366;83;21047;-77
2021/09/23 01:46:52;;;;;;;23.85;7.80;;;;;;;11.20;83.00;101055.77;1712135;83;21007;-78
2021/09/23 01:49:18;;;;;;;25.02;7.10;;;;;;;11.20;83.04;101047.76;1712200;83;21043;-78
2021/09/23 01:51:44;;;;;;;27.20;7.37;;;;;;;11.17;83.04;101040.06;1712450;83;21674;-78
2021/09/23 01:54:10;;;;;;;25.25;7.10;;;;;;;11.15;83.07;101036.73;1714674;83;21153;-78
2021/09/23 01:56:36;;;;;;;20.10;6.67;;;;;;;11.13;83.06;101028.03;1723403;83;21446;-78
2021/09/23 01:59:03;;;;;;;22.55;7.17;;;;;;;11.13;83.07;101022.69;1699081;84;21011;-78
2021/09/23 02:01:29;;;;;;;26.07;7.40;;;;;;;11.11;83.09;101022.02;1722639;83;21046;-77
2021/09/23 02:03:55;;;;;;;20.17;6.62;;;;;;;11.08;83.10;101015.67;1709419;82;20991;-78
2021/09/23 02:06:21;;;;;;;20.52;6.53;;;;;;;11.08;83.10;101018.34;1693531;84;21129;-78
2021/09/23 02:08:47;;;;;;;18.92;6.28;;;;;;;11.06;83.10;101016.30;1693344;84;21553;-78
2021/09/23 02:11:14;;;;;;;22.02;7.55;;;;;;;11.05;83.12;101015.95;1692818;84;20934;-78
2021/09/23 02:13:40;;;;;;;26.70;8.08;;;;;;;11.03;83.19;101012.63;1693691;84;21444;-78
2021/09/23 02:16:07;;;;;;;20.17;8.03;;;;;;;11.04;83.14;101016.97;1669330;84;38168;-78
2021/09/23 02:18:33;;;;;;;27.93;7.58;;;;;;;11.03;83.18;101011.29;1693432;84;21267;-78
2021/09/23 02:20:59;;;;;;;23.38;6.33;;;;;;;11.04;83.17;101004.97;1694082;84;20899;-78
2021/09/23 02:23:25;;;;;;;19.98;7.10;;;;;;;11.05;83.17;101002.61;1697885;84;21380;-78
2021/09/23 02:25:51;;;;;;;26.07;7.78;;;;;;;11.06;83.18;100998.11;1697674;83;21476;-78
2021/09/23 02:28:17;;;;;;;25.02;8.78;;;;;;;11.05;83.20;100993.27;1697818;84;21061;-77
2021/09/23 02:30:43;;;;;;;19.05;6.97;;;;;;;11.06;83.21;100994.95;1697689;83;21107;-78
2021/09/23 02:33:09;;;;;;;20.32;6.60;;;;;;;11.06;83.22;100996.29;1697726;84;21002;-78
2021/09/23 02:35:35;;;;;;;20.20;6.25;;;;;;;11.05;83.22;100993.27;1698092;84;20990;-78
2021/09/23 02:38:01;;;;;;;22.95;7.97;;;;;;;11.01;83.22;100993.27;1697937;84;20959;-77
2021/09/23 02:40:27;;;;;;;21.62;8.20;;;;;;;10.98;83.24;100983.73;1698155;84;21063;-78
2021/09/23 02:42:53;;;;;;;21.30;7.92;;;;;;;10.96;83.25;100984.89;1697824;84;21186;-78
2021/09/23 02:45:19;;;;;;;18.05;7.47;;;;;;;10.91;83.26;100973.84;1697800;84;21093;-78
2021/09/23 02:47:46;;;;;;;25.88;7.37;;;;;;;10.87;83.29;100966.65;1697976;83;20922;-78
2021/09/23 02:50:12;;;;;;;22.70;7.08;;;;;;;10.83;83.30;100960.47;1697974;83;21006;-77
2021/09/23 02:52:39;;;;;;;17.60;7.40;;;;;;;10.80;83.30;100956.80;1698056;84;21015;-77
2021/09/23 02:55:05;;;;;;;25.88;7.30;;;;;;;10.77;83.31;100953.08;1697904;84;21112;-78
2021/09/23 02:57:31;;;;;;;22.13;7.90;;;;;;;10.75;83.32;100945.74;1697985;84;20987;-78
2021/09/23 02:59:57;;;;;;;20.12;7.42;;;;;;;10.74;83.32;100943.56;1697935;84;21010;-78
2021/09/23 03:02:23;;;;;;;24.43;9.53;;;;;;;10.75;83.34;100945.74;1698071;84;20962;-77
2021/09/23 03:04:49;;;;;;;23.40;8.40;;;;;;;10.77;83.38;100945.07;1697926;84;21022;-78
2021/09/23 03:07:15;;;;;;;23.90;7.92;;;;;;;10.75;83.38;100936.41;1697976;84;21091;-78
2021/09/23 03:09:41;;;;;;;26.85;7.87;;;;;;;10.76;83.37;100940.75;1697914;84;20907;-78
2021/09/23 03:12:07;;;;;;;19.85;6.50;;;;;;;10.75;83.39;100945.74;1697815;84;21006;-78
2021/09/23 03:14:33;;;;;;;28.87;7.62;;;;;;;10.78;83.40;100946.27;1698030;83;21026;-78
2021/09/23 03:16:59;;;;;;;26.35;7.35;;;;;;;10.81;83.44;100936.61;1697858;84;21050;-78
2021/09/23 03:19:27;;;;;;;28.65;7.42;;;;;;;10.86;83.46;100932.14;1698062;84;21138;-78
2021/09/23 03:21:54;;;;;;;28.42;7.08;;;;;;;10.91;83.45;100927.14;1698090;84;21880;-78
2021/09/23 03:24:21;;;;;;;27.87;6.55;;;;;;;10.96;83.47;100926.18;1697973;84;20998;-78
2021/09/23 03:26:47;;;;;;;24.50;8.45;;;;;;;10.98;83.47;100922.34;1698115;84;20998;-78
2021/09/23 03:29:13;;;;;;;24.95;6.92;;;;;;;11.02;83.48;100929.05;1698107;84;21045;-78
2021/09/23 03:31:39;;;;;;;22.93;6.67;;;;;;;11.03;83.49;100919.21;1648277;84;21167;-78
2021/09/23 03:34:05;;;;;;;24.10;7.15;;;;;;;11.06;83.49;100912.70;1697825;84;21507;-78
2021/09/23 03:36:31;;;;;;;27.13;6.75;;;;;;;11.02;83.50;100909.52;1698257;84;20991;-78
2021/09/23 03:38:57;;;;;;;22.70;6.92;;;;;;;10.97;83.52;100903.35;1698082;84;21027;-78
2021/09/23 03:41:23;;;;;;;23.57;6.85;;;;;;;10.93;83.52;100907.83;1698122;84;20998;-78
2021/09/23 03:43:50;;;;;;;22.80;6.20;;;;;;;10.89;83.55;100891.80;1672135;84;21119;-78
2021/09/23 03:46:16;;;;;;;23.40;6.95;;;;;;;10.82;83.56;100892.09;1698280;84;21010;-77
2021/09/23 03:48:44;;;;;;;20.02;6.50;;;;;;;10.77;83.60;100884.55;1698122;83;21029;-78
2021/09/23 03:51:13;;;;;;;27.35;6.78;;;;;;;10.72;83.61;100878.03;1697776;84;21043;-78
2021/09/23 03:53:40;;;;;;;23.05;6.95;;;;;;;10.67;83.62;100883.84;1698241;84;20994;-78
2021/09/23 03:56:07;;;;;;;26.40;7.90;;;;;;;10.62;83.66;100883.50;1698096;84;21169;-78
2021/09/23 03:58:33;;;;;;;27.67;8.23;;;;;;;10.60;83.66;100877.95;1697899;84;21526;-78
2021/09/23 04:00:59;;;;;;;23.30;8.13;;;;;;;10.56;83.68;100877.93;1698088;84;21072;-78
2021/09/23 04:03:25;;;;;;;28.47;8.93;;;;;;;10.51;83.69;100875.27;1704971;83;20931;-78
2021/09/23 04:05:51;;;;;;;27.62;8.00;;;;;;;10.47;83.71;100876.58;1727178;83;20999;-78
2021/09/23 04:08:17;;;;;;;28.60;8.08;;;;;;;10.43;83.72;100875.21;1726648;83;21078;-78
2021/09/23 04:10:43;;;;;;;20.08;9.38;;;;;;;10.41;83.74;100865.70;1727024;83;21054;-78
2021/09/23 04:13:09;;;;;;;24.50;7.65;;;;;;;10.38;83.78;100876.16;1727213;83;20871;-78
2021/09/23 04:15:35;;;;;;;19.60;6.67;;;;;;;10.35;83.79;100876.48;1727215;83;21147;-78
2021/09/23 04:18:02;;;;;;;24.23;8.05;;;;;;;10.32;83.80;100880.80;1727210;83;21014;-78
2021/09/23 04:20:28;;;;;;;24.92;8.30;;;;;;;10.29;83.83;100882.45;1727112;83;21767;-77
2021/09/23 04:22:54;;;;;;;20.48;6.87;;;;;;;10.28;83.85;100884.77;1726774;83;21018;-78
2021/09/23 04:25:20;;;;;;;20.32;6.92;;;;;;;10.27;83.87;100885.78;1727376;83;21026;-78
2021/09/23 04:27:46;;;;;;;20.75;6.37;;;;;;;10.24;83.90;100883.40;1727226;83;21081;-78
2021/09/23 04:30:12;;;;;;;22.65;7.15;;;;;;;10.22;83.91;100880.06;1727062;83;21046;-78
2021/09/23 04:32:38;;;;;;;23.30;8.25;;;;;;;10.20;83.94;100882.06;1727214;83;21177;-78
2021/09/23 04:35:05;;;;;;;20.37;7.62;;;;;;;10.17;83.95;100871.69;1726858;83;20895;-78
2021/09/23 04:37:31;;;;;;;19.42;7.12;;;;;;;10.17;83.97;100864.21;1726863;83;21023;-77
2021/09/23 04:39:57;;;;;;;24.75;8.30;;;;;;;10.13;84.02;100855.66;1726987;83;21042;-77
2021/09/23 04:42:23;;;;;;;27.35;7.37;;;;;;;10.13;84.05;100849.00;1727184;83;20998;-77
2021/09/23 04:44:49;;;;;;;25.02;7.47;;;;;;;10.11;84.08;100849.63;1727068;83;21129;-77
2021/09/23 04:47:15;;;;;;;26.73;7.50;;;;;;;10.10;84.10;100847.95;1727028;83;20972;-77
2021/09/23 04:49:44;;;;;;;24.00;7.70;;;;;;;10.10;84.13;100846.61;1727448;83;20941;-78
2021/09/23 04:52:09;;;;;;;27.40;7.80;;;;;;;10.09;84.14;100848.13;1726993;81;20990;-77
2021/09/23 04:54:35;;;;;;;20.88;8.18;;;;;;;10.11;84.17;100852.30;1725133;83;21049;-77
2021/09/23 04:57:01;;;;;;;24.70;8.40;;;;;;;10.10;84.20;100845.28;1722814;81;21073;-78
2021/09/23 04:59:27;;;;;;;22.17;8.88;;;;;;;10.11;84.22;100844.80;1757151;81;21019;-77
2021/09/23 05:01:53;;;;;;;26.57;9.78;;;;;;;10.10;84.25;100842.62;1757436;81;21458;-78
2021/09/23 05:04:19;;;;;;;46.85;15.00;;;;;;;10.13;84.27;100826.34;1721203;81;21538;-78
2021/09/23 05:06:45;;;;;;;30.43;11.30;;;;;;;10.14;84.30;100830.69;1698211;84;21021;-78
2021/09/23 05:09:11;;;;;;;26.45;9.35;;;;;;;10.17;84.30;100830.37;1697847;84;21230;-78
2021/09/23 05:11:37;;;;;;;26.17;9.75;;;;;;;10.27;84.38;100824.47;1697724;83;21022;-77
2021/09/23 05:14:03;;;;;;;25.88;9.75;;;;;;;10.55;84.42;100833.61;1698137;83;21017;-78
2021/09/23 05:16:30;;;;;;;40.23;10.25;;;;;;;10.85;84.44;100823.23;1697983;83;21473;-78
2021/09/23 05:18:56;;;;;;;22.85;9.05;;;;;;;11.15;84.41;100822.34;1698434;84;21068;-78
2021/09/23 05:21:22;;;;;;;22.52;9.40;;;;;;;11.24;84.29;100826.19;1698187;84;21121;-78
2021/09/23 05:23:48;;;;;;;22.82;8.40;;;;;;;11.30;84.24;100818.01;1694755;83;21018;-78
2021/09/23 05:26:14;;;;;;;20.25;7.92;;;;;;;11.57;84.17;100815.55;1694988;84;20981;-78
2021/09/23 05:28:40;;;;;;;21.02;8.58;;;;;;;11.57;84.17;100815.55;1694853;84;21498;-78
2021/09/23 05:31:07;;;;;;;18.95;7.90;;;;;;;11.29;83.95;100817.20;1694384;83;21088;-78
2021/09/23 05:33:33;;;;;;;21.52;8.38;;;;;;;11.15;83.96;100821.00;1694890;84;21147;-78
2021/09/23 05:35:59;;;;;;;21.25;9.20;;;;;;;11.02;83.98;100824.12;1694725;84;21537;-78
2021/09/23 05:38:25;;;;;;;23.98;9.15;;;;;;;10.94;84.02;100816.11;1694920;84;20982;-78
2021/09/23 05:40:51;;;;;;;20.17;9.30;;;;;;;10.94;84.04;100816.11;1695056;84;20973;-78
2021/09/23 05:43:17;;;;;;;22.50;9.73;;;;;;;11.08;84.01;100814.15;1695055;84;21013;-78
2021/09/23 05:45:43;;;;;;;20.57;10.05;;;;;;;11.37;83.86;100805.17;1695015;84;21154;-78
2021/09/23 05:48:09;;;;;;;30.57;10.65;;;;;;;11.55;83.79;100801.02;1694633;84;21021;-78
2021/09/23 05:50:35;;;;;;;22.07;9.93;;;;;;;11.73;83.85;100790.20;1695300;84;20993;-78
2021/09/23 05:53:01;;;;;;;23.85;10.13;;;;;;;11.84;83.85;100788.52;1694922;84;21004;-78
2021/09/23 05:55:28;;;;;;;19.10;9.38;;;;;;;11.94;83.88;100782.00;1695193;84;21037;-78
2021/09/23 05:57:54;;;;;;;20.20;9.88;;;;;;;12.00;83.89;100780.47;1699659;83;21154;-78
2021/09/23 06:00:21;;;;;;;23.67;9.98;;;;;;;12.03;83.92;100780.16;1701764;83;21052;-78
2021/09/23 06:02:47;;;;;;;19.62;9.55;;;;;;;11.98;83.87;100794.52;1702521;83;21066;-79
2021/09/23 06:05:13;;;;;;;23.77;10.80;;;;;;;11.94;83.86;100791.36;1721856;83;20967;-78
2021/09/23 06:07:40;;;;;;;24.92;9.05;;;;;;;11.97;83.82;100787.50;1713478;83;21040;-78
2021/09/23 06:10:08;;;;;;;20.12;10.30;;;;;;;11.96;83.79;100795.20;1685585;83;21548;-78
2021/09/23 06:12:34;;;;;;;18.85;10.55;;;;;;;11.96;83.76;100783.98;1719801;83;21043;-78
2021/09/23 06:15:01;;;;;;;22.48;10.03;;;;;;;12.21;83.67;100791.46;1720201;83;20996;-79
2021/09/23 06:17:27;;;;;;;18.57;11.12;;;;;;;12.48;83.60;100793.75;1720134;83;21583;-78
2021/09/23 06:19:53;;;;;;;19.25;10.95;;;;;;;12.75;83.59;100787.10;1720266;83;21650;-79
2021/09/23 06:22:19;;;;;;;21.77;11.30;;;;;;;12.87;83.50;100788.89;1718600;83;21638;-78
2021/09/23 06:24:45;;;;;;;22.17;12.68;;;;;;;13.08;83.46;100787.77;1708901;83;21510;-76
2021/09/23 06:27:11;;;;;;;21.05;11.88;;;;;;;13.14;83.31;100779.56;1710214;83;21507;-73
2021/09/23 06:29:37;;;;;;;23.75;11.85;;;;;;;13.17;83.20;100778.70;1692585;84;21043;-78
2021/09/23 06:32:04;;;;;;;22.42;12.18;;;;;;;13.29;83.10;100775.11;1694715;83;20876;-77
2021/09/23 06:34:30;;;;;;;19.07;11.63;;;;;;;13.49;83.01;100775.80;1693199;83;21133;-82
2021/09/23 06:36:56;;;;;;;22.55;11.68;;;;;;;13.57;82.90;100776.73;1692446;84;21163;-79
2021/09/23 06:39:22;;;;;;;20.02;12.63;;;;;;;13.62;82.84;100777.02;1692605;84;20998;-74
2021/09/23 06:41:48;;;;;;;24.12;12.73;;;;;;;13.66;82.74;100774.30;1694774;83;20959;-80
2021/09/23 06:44:14;;;;;;;27.98;12.63;;;;;;;13.58;82.64;100771.72;1692531;84;21547;-75
2021/09/23 06:46:42;;;;;;;29.70;12.65;;;;;;;13.44;82.52;100766.64;1693687;83;21951;-76
2021/09/23 06:49:08;;;;;;;28.02;13.50;;;;;;;13.35;82.45;100765.85;1696008;83;20994;-76
2021/09/23 06:51:33;;;;;;;24.87;13.48;;;;;;;13.29;82.37;100771.94;1709351;83;20907;-78
2021/09/23 06:53:59;;;;;;;20.72;13.35;;;;;;;13.25;82.29;100767.94;1721920;83;20983;-75
2021/09/23 06:56:25;;;;;;;25.77;13.55;;;;;;;13.32;82.21;100764.88;1675399;83;20909;-78
2021/09/23 06:58:51;;;;;;;23.90;13.53;;;;;;;13.35;82.13;100763.17;1689434;83;21069;-79
2021/09/23 07:01:17;;;;;;;25.92;13.88;;;;;;;13.40;82.03;100767.50;1717627;83;21077;-79
2021/09/23 07:03:43;;;;;;;28.65;14.80;;;;;;;13.55;81.96;100762.67;1705737;83;21059;-79
2021/09/23 07:06:09;;;;;;;27.17;15.08;;;;;;;13.65;81.90;100764.62;1714875;83;21046;-79
2021/09/23 07:08:35;;;;;;;26.52;15.03;;;;;;;13.72;81.78;100762.88;1719603;83;21042;-79
2021/09/23 07:11:03;;;;;;;22.40;14.40;;;;;;;13.74;81.70;100759.50;1718945;83;21612;-78
2021/09/23 07:13:31;;;;;;;26.87;15.25;;;;;;;13.73;81.65;100761.34;1704321;83;20990;-79
2021/09/23 07:16:03;;;;;;;24.87;14.80;;;;;;;13.63;81.53;100761.27;1692479;83;21533;-80
2021/09/23 07:18:27;;;;;;;25.30;15.72;;;;;;;13.62;81.52;100760.44;1691996;84;21514;-79
2021/09/23 07:20:55;;;;;;;23.02;14.87;;;;;;;13.59;81.45;100758.63;1705774;83;21077;-79
2021/09/23 07:23:23;;;;;;;26.25;15.78;;;;;;;13.58;81.41;100750.28;1705460;83;21695;-79
2021/09/23 07:25:52;;;;;;;29.70;15.85;;;;;;;13.60;81.34;100738.86;1727165;83;20990;-79
2021/09/23 07:28:18;;;;;;;27.30;16.77;;;;;;;13.65;81.32;100737.82;1700589;83;21447;-77
2021/09/23 07:30:44;;;;;;;23.40;15.58;;;;;;;13.64;81.21;100735.64;1714796;83;21019;-79
2021/09/23 07:33:10;;;;;;;33.73;16.07;;;;;;;13.66;81.19;100739.47;1703357;83;21016;-79
2021/09/23 07:35:36;;;;;;;27.00;16.25;;;;;;;13.74;81.18;100740.73;1703915;83;21117;-79
2021/09/23 07:38:03;;;;;;;24.12;15.93;;;;;;;13.72;81.11;100744.12;1697498;84;21033;-79
2021/09/23 07:40:29;;;;;;;25.50;16.12;;;;;;;13.71;81.09;100747.80;1705738;83;21003;-74
2021/09/23 07:42:55;;;;;;;29.25;16.27;;;;;;;13.78;81.06;100738.86;1716200;83;22213;-78
2021/09/23 07:45:21;;;;;;;23.42;15.70;;;;;;;13.94;81.05;100731.14;1713193;83;21508;-79
2021/09/23 07:47:47;;;;;;;21.55;15.35;;;;;;;14.09;80.98;100731.16;1712077;83;21533;-80
2021/09/23 07:50:15;;;;;;;26.57;15.88;;;;;;;14.13;80.86;100727.94;1700366;83;21046;-80
2021/09/23 07:52:41;;;;;;;27.07;17.07;;;;;;;14.16;80.82;100720.86;1711485;83;21057;-80
2021/09/23 07:55:07;;;;;;;28.85;15.93;;;;;;;14.16;80.77;100719.52;1697258;84;20902;-80
2021/09/23 07:57:34;;;;;;;21.23;15.93;;;;;;;14.18;80.71;100729.53;1696793;84;21514;-80
2021/09/23 08:00:03;;;;;;;28.73;15.72;;;;;;;14.21;80.66;100725.67;1696647;84;21857;-78
2021/09/23 08:02:29;;;;;;;22.32;15.50;;;;;;;14.20;80.56;100723.50;1704255;83;21125;-78
2021/09/23 08:04:55;;;;;;;23.83;15.20;;;;;;;14.18;80.50;100720.68;1717202;81;21396;-78
2021/09/23 08:07:21;;;;;;;26.65;16.20;;;;;;;14.23;80.45;100716.92;1733765;81;21066;-79
2021/09/23 08:09:47;;;;;;;26.80;15.93;;;;;;;14.32;80.41;100709.92;1713370;83;21565;-79
2021/09/23 08:12:13;;;;;;;24.12;15.90;;;;;;;14.45;80.34;100714.17;1714100;83;21614;-79
2021/09/23 08:14:39;;;;;;;21.27;14.87;;;;;;;14.78;80.27;100717.73;1696976;83;21022;-79
2021/09/23 08:17:05;;;;;;;23.40;15.75;;;;;;;14.78;80.27;100717.73;1703174;83;21041;-78
2021/09/23 08:19:35;;;;;;;21.33;15.60;;;;;;;14.96;80.12;100707.41;1711710;83;20966;-80
2021/09/23 08:22:03;;;;;;;25.48;15.58;;;;;;;15.07;79.96;100701.53;1714884;83;21517;-79
2021/09/23 08:24:29;;;;;;;25.08;15.85;;;;;;;15.18;79.86;100688.94;1708243;83;21589;-84
2021/09/23 08:26:55;;;;;;;29.32;16.37;;;;;;;15.17;79.73;100687.77;1704854;83;21045;-85
2021/09/23 08:29:21;;;;;;;28.50;15.43;;;;;;;15.03;79.57;100686.81;1703859;83;21029;-83
2021/09/23 08:31:47;;;;;;;25.95;14.63;;;;;;;14.95;79.54;100686.42;1709517;83;21494;-88
2021/09/23 08:34:13;;;;;;;25.30;15.83;;;;;;;14.88;79.46;100660.02;1699317;83;21025;-86
2021/09/23 08:36:39;;;;;;;23.42;14.78;;;;;;;14.97;79.51;100665.59;1696734;84;21063;-83
2021/09/23 08:39:05;;;;;;;25.02;15.80;;;;;;;15.18;79.29;100681.38;1708292;83;21022;-83
2021/09/23 08:41:31;;;;;;;24.07;14.65;;;;;;;15.49;78.90;100652.32;1711863;83;21057;-88
2021/09/23 08:43:59;;;;;;;28.07;18.57;;;;;;;15.49;78.90;100652.32;1696757;83;21033;-81
2021/09/23 08:46:33;;;;;;;23.07;14.87;;;;;;;15.76;78.92;100661.42;1697614;83;21490;-77
2021/09/23 08:48:54;;;;;;;25.97;14.00;;;;;;;15.90;78.77;100657.78;1724569;83;21334;-79
2021/09/23 08:51:22;;;;;;;26.05;14.63;;;;;;;15.95;78.59;100659.34;1708135;83;21054;-89
2021/09/23 08:53:48;;;;;;;19.02;13.78;;;;;;;15.91;78.42;100655.39;1696945;84;21062;-82
2021/09/23 08:56:14;;;;;;;20.55;14.05;;;;;;;15.90;78.30;100652.41;1696832;84;21045;-86
2021/09/23 08:58:40;;;;;;;37.90;14.45;;;;;;;15.96;78.19;100638.16;1716727;83;21017;-82
2021/09/23 09:01:09;;;;;;;20.90;13.18;;;;;;;15.97;78.04;100634.44;1723596;83;21094;-81
2021/09/23 09:03:36;;;;;;;22.00;14.43;;;;;;;16.04;77.98;100633.96;1714978;83;21014;-79
2021/09/23 09:06:05;;;;;;;25.32;14.33;;;;;;;16.13;77.81;100630.06;1698799;83;21057;-82
2021/09/23 09:08:33;;;;;;;21.35;14.00;;;;;;;16.09;77.63;100628.79;1720665;83;21034;-88
2021/09/23 09:11:02;;;;;;;25.72;16.90;;;;;;;16.03;77.58;100621.53;1724173;83;21586;-84
2021/09/23 09:13:34;;;;;;;21.42;15.88;;;;;;;15.99;77.44;100616.23;1725981;83;21149;-88
2021/09/23 09:16:07;;;;;;;27.00;18.15;;;;;;;15.95;77.34;100616.30;1725796;83;21003;-89
2021/09/23 09:18:34;;;;;;;28.50;17.75;;;;;;;15.99;77.31;100612.19;1700769;83;20994;-80
2021/09/23 09:21:04;;;;;;;25.52;16.05;;;;;;;15.99;77.18;100606.81;1719538;83;21022;-87
2021/09/23 09:23:46;;;;;;;31.12;17.92;;;;;;;15.97;77.10;100598.12;1708972;83;21571;-86
2021/09/23 09:26:41;;;;;;;27.70;16.45;;;;;;;15.89;76.99;100598.28;1711136;83;21186;-88
2021/09/23 09:29:08;;;;;;;28.85;20.00;;;;;;;15.84;76.83;100592.15;1712982;83;21298;-88
2021/09/23 09:31:37;;;;;;;31.25;19.37;;;;;;;15.72;76.65;100582.17;1704359;81;21060;-88
2021/09/23 09:34:05;;;;;;;23.02;15.68;;;;;;;15.71;76.58;100580.50;1697710;83;21011;-86
2021/09/23 09:36:40;;;;;;;27.55;17.90;;;;;;;15.74;76.57;100574.20;1694320;83;21084;-88
2021/09/23 09:39:13;;;;;;;22.82;15.95;;;;;;;15.78;76.53;100571.95;1703720;83;21148;-88
2021/09/23 09:41:41;;;;;;;27.10;16.20;;;;;;;15.84;76.47;100557.19;1699958;83;21009;-90
2021/09/23 09:44:11;;;;;;;26.65;17.27;;;;;;;15.92;76.41;100538.70;1689280;83;21079;-87
2021/09/23 09:46:57;;;;;;;34.80;22.82;;;;;;;15.97;76.27;100539.75;1705851;83;21101;-89
2021/09/23 09:49:21;;;;;;;26.40;16.73;;;;;;;15.99;76.15;100530.98;1704351;83;21019;-89
2021/09/23 09:51:54;;;;;;;73.95;39.67;;;;;;;16.00;76.05;100517.02;1702708;83;21080;-87
2021/09/23 09:54:20;;;;;;;52.95;30.48;;;;;;;16.00;75.96;100514.33;1696605;83;21018;-88
2021/09/23 09:56:49;;;;;;;31.90;20.75;;;;;;;16.04;75.89;100512.89;1696140;83;21049;-88
2021/09/23 09:59:18;;;;;;;24.63;15.83;;;;;;;16.12;75.75;100511.34;1678235;83;21069;-87
2021/09/23 10:01:47;;;;;;;36.13;23.92;;;;;;;16.24;75.72;100507.04;1713437;83;21062;-88
2021/09/23 10:04:13;;;;;;;51.20;30.08;;;;;;;16.29;75.55;100491.09;1718291;83;21838;-88
2021/09/23 10:06:40;;;;;;;29.70;18.70;;;;;;;16.28;75.41;100492.14;1716213;83;21046;-87
2021/09/23 10:09:09;;;;;;;26.20;17.00;;;;;;;16.18;75.20;100491.72;1720615;83;21053;-87
2021/09/23 10:11:40;;;;;;;42.40;25.73;;;;;;;16.08;75.16;100481.83;1721041;83;21057;-86
2021/09/23 10:14:06;;;;;;;27.00;17.87;;;;;;;16.02;75.03;100471.06;1703002;83;21435;-86
2021/09/23 10:16:32;;;;;;;22.22;15.35;;;;;;;16.01;74.90;100470.23;1692572;83;21141;-87
2021/09/23 10:18:58;;;;;;;26.23;17.55;;;;;;;16.05;74.82;100482.76;1714621;83;21031;-87
2021/09/23 10:21:25;;;;;;;29.37;17.12;;;;;;;16.11;74.75;100473.38;1698184;83;21049;-87
2021/09/23 10:23:52;;;;;;;21.95;15.72;;;;;;;16.27;74.70;100458.70;1714497;83;21041;-87
2021/09/23 10:26:23;;;;;;;23.67;16.12;;;;;;;16.38;74.53;100461.61;1726219;83;21110;-90
2021/09/23 10:28:49;;;;;;;25.75;16.52;;;;;;;16.57;74.41;100461.86;1725623;83;22888;-86
2021/09/23 10:31:20;;;;;;;26.45;16.57;;;;;;;16.79;74.35;100452.52;1684612;83;21053;-86
2021/09/23 10:33:47;;;;;;;23.25;16.05;;;;;;;16.84;74.06;100460.81;1719835;83;21085;-86
2021/09/23 10:36:15;;;;;;;21.40;15.50;;;;;;;16.94;73.84;100448.56;1696614;84;21049;-86
2021/09/23 10:38:42;;;;;;;22.85;15.60;;;;;;;17.13;73.73;100442.00;1718542;83;21594;-86
2021/09/23 10:41:10;;;;;;;22.98;15.63;;;;;;;17.18;73.41;100436.27;1725589;83;21876;-86
2021/09/23 10:43:37;;;;;;;25.52;16.80;;;;;;;17.27;73.17;100435.53;1723168;83;21038;-86
2021/09/23 10:46:03;;;;;;;33.95;19.85;;;;;;;17.41;73.01;100431.23;1682030;83;21073;-88
2021/09/23 10:48:35;;;;;;;34.67;21.65;;;;;;;17.45;72.68;100427.05;1698963;83;21569;-87
2021/09/23 10:51:03;;;;;;;30.27;21.40;;;;;;;17.52;72.49;100417.61;1726242;82;21011;-87
2021/09/23 10:53:35;;;;;;;68.62;36.35;;;;;;;17.43;72.06;100419.70;1699369;83;21190;-87
2021/09/23 10:56:07;;;;;;;37.38;23.07;;;;;;;17.31;71.85;100419.25;1724185;83;21062;-87
2021/09/23 10:58:34;;;;;;;35.15;19.87;;;;;;;17.26;71.76;100415.83;1709862;83;21058;-87
2021/09/23 11:01:00;;;;;;;32.67;18.82;;;;;;;17.19;71.69;100415.03;1698489;83;21626;-87
2021/09/23 11:03:37;;;;;;;29.20;17.12;;;;;;;17.14;71.48;100410.78;1706267;83;21065;-87
2021/09/23 11:06:10;;;;;;;35.90;18.82;;;;;;;17.05;71.32;100412.58;1696980;84;21146;-87
2021/09/23 11:08:48;;;;;;;53.05;26.97;;;;;;;16.98;71.17;100401.83;1697165;84;21018;-87
2021/09/23 11:11:15;;;;;;;79.40;41.77;;;;;;;16.96;71.08;100395.28;1696433;84;21554;-87
2021/09/23 11:13:42;;;;;;;33.73;21.70;;;;;;;17.07;71.05;100383.02;1715318;83;21089;-86